Time;durP1;ratioP1;P1;durP2;ratioP2;P2;SDS_P1;SDS_P2;PMS_P1;PMS_P2;Temp;Humidity;BMP_temperature;BMP_pressure;BME280_temperature;BME280_humidity;BME280_pressure;Samples;Min_cycle;Max_cycle;Signal;HPM_P1;HPM_P2
2021/05/22 00:02:09;;;;;;;1.42;0.55;;;;;;;10.72;100.00;96649.84;5077189;28;20047;-81
2021/05/22 00:04:35;;;;;;;1.70;0.70;;;;;;;10.61;100.00;96650.31;5093699;28;20055;-80
2021/05/22 00:07:02;;;;;;;1.15;0.70;;;;;;;10.57;100.00;96629.69;5077204;28;20044;-80
2021/05/22 00:09:29;;;;;;;1.80;0.85;;;;;;;10.59;100.00;96630.94;5111227;28;20134;-80
2021/05/22 00:11:55;;;;;;;3.78;0.63;;;;;;;10.52;100.00;96635.31;5093791;28;20512;-80
2021/05/22 00:14:22;;;;;;;3.25;0.60;;;;;;;10.45;100.00;96644.00;5075462;28;20422;-80
2021/05/22 00:16:51;;;;;;;1.27;0.80;;;;;;;10.43;100.00;96642.75;5093321;28;20043;-80
2021/05/22 00:19:18;;;;;;;2.33;0.93;;;;;;;10.39;100.00;96639.94;5111738;28;20293;-80
2021/05/22 00:21:45;;;;;;;1.83;0.80;;;;;;;10.42;100.00;96646.59;5093864;28;20039;-80
2021/05/22 00:24:12;;;;;;;1.33;0.90;;;;;;;10.37;100.00;96644.91;5093251;28;20043;-81
2021/05/22 00:26:38;;;;;;;1.48;0.77;;;;;;;10.39;100.00;96658.88;5094217;28;20046;-81
2021/05/22 00:29:05;;;;;;;3.38;0.80;;;;;;;10.45;100.00;96664.88;5099774;28;20040;-81
2021/05/22 00:31:33;;;;;;;1.75;0.70;;;;;;;10.48;100.00;96683.09;5095908;28;20255;-81
2021/05/22 00:34:00;;;;;;;1.40;0.77;;;;;;;10.43;100.00;96688.75;5111821;28;20044;-80
2021/05/22 00:36:27;;;;;;;2.38;0.77;;;;;;;10.48;100.00;96699.34;5093749;28;20039;-82
2021/05/22 00:38:53;;;;;;;2.25;0.60;;;;;;;10.55;100.00;96707.72;5112048;28;20055;-82
2021/05/22 00:41:20;;;;;;;1.23;0.65;;;;;;;10.60;100.00;96696.66;5093982;28;20116;-82
2021/05/22 00:43:49;;;;;;;1.35;0.73;;;;;;;10.67;100.00;96686.06;5093660;28;20490;-81
2021/05/22 00:46:16;;;;;;;3.78;0.98;;;;;;;10.67;100.00;96672.53;5093858;28;20044;-82
2021/05/22 00:48:43;;;;;;;2.45;0.90;;;;;;;10.67;100.00;96666.31;5094274;28;20051;-81
2021/05/22 00:51:11;;;;;;;3.03;0.80;;;;;;;10.78;100.00;96684.50;5100266;28;20112;-83
2021/05/22 00:53:38;;;;;;;0.88;0.68;;;;;;;10.77;100.00;96674.00;5117633;28;20031;-82
2021/05/22 00:56:05;;;;;;;4.40;1.30;;;;;;;10.79;100.00;96669.03;5094360;28;20036;-82
2021/05/22 00:58:34;;;;;;;1.08;0.75;;;;;;;10.77;100.00;96663.94;5093598;28;20100;-83
2021/05/22 01:01:00;;;;;;;2.35;0.80;;;;;;;10.77;100.00;96661.25;5094355;28;20050;-82
2021/05/22 01:03:32;;;;;;;2.60;0.90;;;;;;;10.73;100.00;96667.69;5077355;28;20130;-82
2021/05/22 01:06:24;;;;;;;1.55;0.70;;;;;;;10.77;100.00;96679.41;5095296;28;20040;-82
2021/05/22 01:08:53;;;;;;;0.93;0.60;;;;;;;10.68;100.00;96655.19;5114070;28;20043;-82
2021/05/22 01:11:27;;;;;;;1.40;0.90;;;;;;;10.70;100.00;96657.53;5078722;28;20058;-83
2021/05/22 01:13:59;;;;;;;2.50;1.27;;;;;;;10.72;100.00;96629.00;5093542;28;20065;-83
2021/05/22 01:16:29;;;;;;;1.92;1.00;;;;;;;10.71;100.00;96603.03;5077545;28;20047;-83
2021/05/22 01:18:58;;;;;;;2.63;1.02;;;;;;;10.74;100.00;96599.66;5094890;28;20039;-82
2021/05/22 01:21:25;;;;;;;2.30;0.90;;;;;;;10.72;100.00;96607.34;5111796;28;20058;-82
2021/05/22 01:24:14;;;;;;;1.75;0.70;;;;;;;10.64;100.00;96617.16;5112083;28;20040;-82
2021/05/22 01:26:42;;;;;;;1.33;0.65;;;;;;;10.63;100.00;96620.97;5094544;28;20044;-82
2021/05/22 01:29:09;;;;;;;1.10;0.70;;;;;;;10.60;100.00;96626.31;5077411;28;20460;-82
2021/05/22 01:31:36;;;;;;;2.17;0.88;;;;;;;10.63;100.00;96631.81;5112275;28;20044;-81
2021/05/22 01:34:03;;;;;;;2.33;0.85;;;;;;;10.63;100.00;96609.41;5093129;28;20051;-81
2021/05/22 01:36:31;;;;;;;3.15;0.77;;;;;;;10.70;100.00;96604.19;5093859;28;20085;-83
2021/05/22 01:38:58;;;;;;;1.20;0.70;;;;;;;10.62;100.00;96596.97;5111162;28;20238;-82
2021/05/22 01:41:25;;;;;;;2.28;0.70;;;;;;;10.61;100.00;96603.50;5113097;28;20051;-82
2021/05/22 01:43:56;;;;;;;1.83;0.88;;;;;;;10.67;100.00;96612.19;5096626;28;20050;-83
2021/05/22 01:46:27;;;;;;;1.75;0.80;;;;;;;10.62;100.00;96619.44;5094173;28;20035;-82
2021/05/22 01:48:55;;;;;;;1.60;0.85;;;;;;;10.59;100.00;96625.50;5079895;28;20478;-83
2021/05/22 01:51:24;;;;;;;2.95;0.90;;;;;;;10.66;100.00;96653.94;5094762;28;20099;-84
2021/05/22 01:53:52;;;;;;;1.13;0.82;;;;;;;10.70;100.00;96662.94;5077740;28;20143;-82
2021/05/22 01:56:20;;;;;;;3.42;1.10;;;;;;;10.72;100.00;96657.97;5098914;28;20111;-82
2021/05/22 01:59:20;;;;;;;2.13;1.00;;;;;;;10.68;100.00;96636.22;5079411;28;20040;-84
2021/05/22 02:01:49;;;;;;;1.70;1.00;;;;;;;10.80;100.00;96667.91;5096165;28;20077;-82
2021/05/22 02:04:19;;;;;;;3.47;0.98;;;;;;;10.73;100.00;96662.28;5113929;28;20046;-82
2021/05/22 02:06:49;;;;;;;3.42;1.00;;;;;;;10.81;100.00;96675.69;5081732;28;20073;-81
2021/05/22 02:09:19;;;;;;;2.03;1.08;;;;;;;10.88;100.00;96691.38;5098627;28;20044;-81
2021/05/22 02:12:20;;;;;;;2.38;1.10;;;;;;;10.99;100.00;96668.13;5082412;28;20056;-80
2021/05/22 02:15:10;;;;;;;3.42;0.80;;;;;;;10.95;100.00;96664.50;5080994;28;20065;-82
2021/05/22 02:17:39;;;;;;;2.70;1.10;;;;;;;10.88;100.00;96656.97;5081326;28;20047;-81
2021/05/22 02:20:10;;;;;;;2.42;1.00;;;;;;;10.93;100.00;96678.38;5084132;28;20050;-82
2021/05/22 02:22:44;;;;;;;3.15;1.17;;;;;;;10.88;100.00;96683.25;5081957;28;20513;-81
2021/05/22 02:25:16;;;;;;;3.60;1.10;;;;;;;10.92;100.00;96690.34;5098720;28;20678;-81
2021/05/22 02:30:59;;;;;;;2.88;1.45;;;;;;;10.91;100.00;96686.06;5096971;28;20107;-80
2021/05/22 02:33:36;;;;;;;3.00;1.42;;;;;;;10.78;100.00;96665.53;5084639;28;20047;-82
2021/05/22 02:36:24;;;;;;;4.18;1.20;;;;;;;10.87;100.00;96666.19;5086851;28;20097;-83
2021/05/22 02:38:58;;;;;;;4.53;1.45;;;;;;;10.85;100.00;96676.59;5094722;28;20047;-81
2021/05/22 02:41:29;;;;;;;3.42;1.30;;;;;;;10.91;100.00;96661.69;5100140;28;20051;-83
2021/05/22 02:47:00;;;;;;;5.85;1.50;;;;;;;10.88;100.00;96654.25;5085827;28;20530;-85
2021/05/22 02:49:41;;;;;;;2.40;1.35;;;;;;;10.82;100.00;96658.31;5122412;28;20043;-81
2021/05/22 02:52:19;;;;;;;1.63;1.30;;;;;;;10.87;100.00;96665.41;5073799;28;20484;-80
2021/05/22 02:54:52;;;;;;;3.03;1.42;;;;;;;10.92;100.00;96671.38;5114294;28;20036;-82
2021/05/22 02:57:32;;;;;;;3.15;1.38;;;;;;;10.83;100.00;96650.97;5082043;28;20100;-82
2021/05/22 03:00:03;;;;;;;4.38;1.30;;;;;;;10.84;100.00;96658.75;5079797;28;20436;-81
2021/05/22 03:02:45;;;;;;;2.67;1.45;;;;;;;10.86;100.00;96658.44;5095670;28;20047;-82
2021/05/22 03:05:18;;;;;;;3.60;1.30;;;;;;;10.85;100.00;96654.94;5096213;28;20074;-81
2021/05/22 03:07:45;;;;;;;3.75;1.70;;;;;;;10.87;100.00;96655.38;5088898;28;20059;-83
2021/05/22 03:10:17;;;;;;;3.80;1.20;;;;;;;10.85;100.00;96649.50;5087062;28;20248;-81
2021/05/22 03:12:44;;;;;;;4.20;1.30;;;;;;;10.86;100.00;96642.97;5094846;28;20375;-84
2021/05/22 03:15:12;;;;;;;3.40;1.60;;;;;;;10.94;100.00;96652.09;5080636;28;20097;-82
2021/05/22 03:18:06;;;;;;;2.88;1.40;;;;;;;10.93;100.00;96651.31;5036594;28;20047;-82
2021/05/22 03:20:49;;;;;;;3.83;1.40;;;;;;;10.88;100.00;96653.47;5078908;28;20078;-84
2021/05/22 03:23:24;;;;;;;3.30;1.20;;;;;;;10.86;100.00;96632.16;5097339;28;20111;-83
2021/05/22 03:26:39;;;;;;;3.10;1.50;;;;;;;10.89;100.00;96633.38;5081481;28;20482;-83
2021/05/22 03:29:23;;;;;;;;;;;;;;;;;;;;;
2021/05/22 03:32:45;;;;;;;3.67;1.40;;;;;;;11.05;100.00;96655.91;5095989;28;20043;-83
2021/05/22 03:36:04;;;;;;;2.92;1.40;;;;;;;11.00;100.00;96646.09;5023343;28;20046;-84
2021/05/22 03:38:43;;;;;;;5.85;1.42;;;;;;;10.99;100.00;96662.69;5051124;28;20106;-83
2021/05/22 03:41:50;;;;;;;3.03;1.30;;;;;;;10.83;100.00;96635.53;5080924;28;20226;-84
2021/05/22 03:44:23;;;;;;;4.07;1.40;;;;;;;11.05;100.00;96669.44;5101050;28;20047;-82
2021/05/22 03:46:56;;;;;;;4.40;1.45;;;;;;;10.90;100.00;96641.16;5086993;28;20067;-82
2021/05/22 03:49:23;;;;;;;2.75;1.40;;;;;;;11.00;100.00;96656.94;5086779;28;20068;-81
2021/05/22 03:52:00;;;;;;;7.97;1.73;;;;;;;10.97;100.00;96651.44;5086245;28;20499;-81
2021/05/22 03:54:52;;;;;;;5.90;1.88;;;;;;;10.95;100.00;96654.47;5086537;28;20048;-81
2021/05/22 03:57:22;;;;;;;4.28;1.63;;;;;;;10.83;100.00;96669.94;5103162;28;20061;-82
2021/05/22 03:59:50;;;;;;;4.15;1.67;;;;;;;10.87;100.00;96662.69;5103221;28;20036;-81
2021/05/22 04:02:17;;;;;;;2.75;1.40;;;;;;;10.99;100.00;96668.13;5086581;28;20048;-81
2021/05/22 04:04:47;;;;;;;5.53;1.40;;;;;;;11.08;100.00;96674.97;5102448;28;20043;-82
2021/05/22 04:07:16;;;;;;;2.85;1.40;;;;;;;11.16;100.00;96679.47;5080992;28;20043;-82
2021/05/22 04:09:42;;;;;;;3.53;1.30;;;;;;;11.14;100.00;96687.16;5078282;28;20135;-81
2021/05/22 04:12:10;;;;;;;2.65;1.20;;;;;;;11.13;100.00;96684.78;5078785;28;20138;-83
2021/05/22 04:14:37;;;;;;;4.38;1.33;;;;;;;11.20;100.00;96693.16;5078506;28;20043;-82
2021/05/22 04:17:06;;;;;;;2.67;1.40;;;;;;;11.18;100.00;96698.88;5113197;28;20118;-83
2021/05/22 04:19:36;;;;;;;5.65;1.48;;;;;;;11.17;100.00;96694.59;5077094;28;20052;-83
2021/05/22 04:22:03;;;;;;;2.78;1.30;;;;;;;11.15;100.00;96701.47;5077895;28;20108;-81
2021/05/22 04:24:33;;;;;;;2.85;1.35;;;;;;;11.16;100.00;96697.66;5078875;28;20051;-82
2021/05/22 04:27:00;;;;;;;6.05;1.42;;;;;;;11.15;100.00;96677.09;5094814;28;20388;-83
2021/05/22 04:29:27;;;;;;;4.22;1.02;;;;;;;11.18;100.00;96704.31;5094430;28;20051;-82
2021/05/22 04:31:54;;;;;;;3.25;1.20;;;;;;;11.12;100.00;96692.13;5113891;28;20093;-81
2021/05/22 04:34:21;;;;;;;4.40;1.60;;;;;;;11.03;100.00;96710.41;5078255;28;20048;-82
2021/05/22 04:37:27;;;;;;;;;;;;;;;;;;;;;
2021/05/22 04:40:20;;;;;;;4.78;1.30;;;;;;;10.22;100.00;96759.16;5062376;28;20101;-80
2021/05/22 04:42:49;;;;;;;2.78;0.80;;;;;;;9.24;100.00;96762.44;5059655;28;20138;-83
2021/05/22 04:45:16;;;;;;;2.58;0.60;;;;;;;8.74;100.00;96757.00;5059572;28;20056;-83
2021/05/22 04:47:49;;;;;;;1.52;0.50;;;;;;;8.51;100.00;96768.38;5076774;28;20091;-82
2021/05/22 04:50:19;;;;;;;3.55;0.60;;;;;;;8.49;100.00;96776.00;5059693;28;20551;-83
2021/05/22 04:53:06;;;;;;;1.88;0.60;;;;;;;8.35;100.00;96776.19;5076591;28;20143;-82
2021/05/22 04:55:57;;;;;;;3.70;0.70;;;;;;;8.34;100.00;96779.19;5000482;28;20051;-81
2021/05/22 04:59:09;;;;;;;;;;;;;;;;;;;;;
2021/05/22 05:02:03;;;;;;;4.75;0.70;;;;;;;8.41;100.00;96774.91;5013818;28;20568;-82
2021/05/22 05:05:03;;;;;;;3.47;0.50;;;;;;;8.46;100.00;96779.34;5010317;28;20128;-82
2021/05/22 05:08:36;;;;;;;;;;;;;;;;;;;;;
2021/05/22 05:12:08;;;;;;;2.03;0.55;;;;;;;8.40;100.00;96780.59;4940860;28;20058;-83
2021/05/22 05:15:18;;;;;;;2.70;0.60;;;;;;;8.49;100.00;96786.78;4944698;28;20051;-83
2021/05/22 05:18:28;;;;;;;2.20;0.60;;;;;;;8.63;100.00;96790.84;4955892;28;20095;-83
2021/05/22 05:21:28;;;;;;;3.17;0.60;;;;;;;8.82;100.00;96808.56;4928916;29;20138;-83
2021/05/22 05:25:23;;;;;;;3.08;0.80;;;;;;;8.76;100.00;96792.56;4910483;28;20131;-83
2021/05/22 05:28:59;;;;;;;;;;;;;;;;;;;;;
2021/05/22 05:31:50;;;;;;;1.33;0.60;;;;;;;8.91;100.00;96782.31;5004328;28;20060;-83
2021/05/22 05:34:44;;;;;;;3.97;1.05;;;;;;;9.08;100.00;96809.25;5056995;28;20041;-81
2021/05/22 05:37:23;;;;;;;7.63;0.95;;;;;;;8.99;100.00;96795.00;5066043;28;20053;-83
2021/05/22 05:39:53;;;;;;;1.98;0.57;;;;;;;9.07;100.00;96803.06;5048048;28;20087;-83
2021/05/22 05:42:26;;;;;;;2.67;0.65;;;;;;;9.10;100.00;96801.63;5058684;28;20054;-85
2021/05/22 05:45:07;;;;;;;2.15;0.65;;;;;;;9.20;100.00;96806.66;5067784;28;20048;-83
2021/05/22 05:47:42;;;;;;;5.53;0.88;;;;;;;9.26;100.00;96803.44;5068169;28;20047;-82
2021/05/22 05:50:13;;;;;;;3.35;0.85;;;;;;;9.37;100.00;96784.94;5079214;28;20052;-83
2021/05/22 05:52:41;;;;;;;6.45;1.45;;;;;;;9.42;100.00;96782.03;5075849;28;20391;-82
2021/05/22 05:55:09;;;;;;;5.93;0.65;;;;;;;9.50;100.00;96796.63;5106581;28;20055;-83
2021/05/22 05:57:39;;;;;;;4.18;0.77;;;;;;;9.38;100.00;96786.53;5095260;28;20518;-83
2021/05/22 06:00:07;;;;;;;5.57;0.70;;;;;;;9.40;100.00;96776.19;5100087;28;20547;-83
2021/05/22 06:02:38;;;;;;;3.22;0.70;;;;;;;9.44;100.00;96779.03;5082833;28;20074;-83
2021/05/22 06:05:06;;;;;;;5.78;0.70;;;;;;;9.48;100.00;96790.75;5099770;28;20048;-82
2021/05/22 06:07:38;;;;;;;7.07;1.10;;;;;;;9.63;100.00;96792.84;5084767;28;20271;-83
2021/05/22 06:10:14;;;;;;;4.32;0.60;;;;;;;9.83;100.00;96789.41;5091673;28;20051;-82
2021/05/22 06:12:42;;;;;;;4.22;0.52;;;;;;;9.99;100.00;96801.97;5097767;28;20051;-82
2021/05/22 06:17:43;;;;;;;2.63;0.50;;;;;;;10.05;100.00;96799.84;5101442;28;20044;-82
2021/05/22 06:20:16;;;;;;;2.38;0.68;;;;;;;10.19;100.00;96824.75;5103456;28;20531;-84
2021/05/22 06:22:50;;;;;;;3.78;0.75;;;;;;;10.25;100.00;96811.78;5075681;28;20138;-84
2021/05/22 06:25:43;;;;;;;1.88;0.57;;;;;;;10.07;100.00;96819.22;5062199;28;20072;-85
2021/05/22 06:28:10;;;;;;;4.28;0.70;;;;;;;10.01;100.00;96801.66;5089545;28;20038;-82
2021/05/22 06:30:39;;;;;;;3.55;0.80;;;;;;;10.09;100.00;96808.88;5068190;28;20055;-83
2021/05/22 06:33:06;;;;;;;1.95;0.70;;;;;;;10.03;100.00;96810.22;5082255;28;20456;-83
2021/05/22 06:35:32;;;;;;;3.97;0.60;;;;;;;10.23;100.00;96824.84;5066299;28;20047;-84
2021/05/22 06:38:32;;;;;;;7.53;0.90;;;;;;;10.32;100.00;96798.53;5087012;28;20147;-84
2021/05/22 06:41:03;;;;;;;7.57;0.90;;;;;;;10.27;100.00;96825.78;5079860;28;20048;-81
2021/05/22 06:43:30;;;;;;;5.32;0.65;;;;;;;10.25;100.00;96809.88;5087127;28;20054;-82
2021/05/22 06:48:39;;;;;;;2.58;0.75;;;;;;;10.94;100.00;96811.88;5098103;28;20079;-83
2021/05/22 06:51:21;;;;;;;12.27;1.13;;;;;;;11.22;100.00;96810.88;5070991;28;20044;-84
2021/05/22 06:53:50;;;;;;;1.55;0.52;;;;;;;11.27;100.00;96809.84;5088722;28;20036;-82
2021/05/22 06:56:27;;;;;;;6.38;1.05;;;;;;;11.26;100.00;96825.31;5061945;28;20040;-82
2021/05/22 06:58:54;;;;;;;4.10;0.80;;;;;;;11.10;100.00;96789.19;5071675;28;20738;-84
2021/05/22 07:01:31;;;;;;;2.08;0.70;;;;;;;10.92;100.00;96804.06;5067358;28;20036;-82
2021/05/22 07:04:07;;;;;;;5.18;0.77;;;;;;;10.75;100.00;96823.22;5082729;28;20068;-83
2021/05/22 07:10:04;;;;;;;3.40;0.70;;;;;;;10.68;100.00;96820.28;5068209;28;20117;-85
2021/05/22 07:13:12;;;;;;;3.85;0.63;;;;;;;10.87;100.00;96820.53;5076702;28;20044;-85
2021/05/22 07:15:50;;;;;;;2.88;0.60;;;;;;;11.27;100.00;96823.38;5045658;28;20040;-84
2021/05/22 07:18:20;;;;;;;3.88;0.90;;;;;;;11.13;100.00;96822.94;5046496;28;20041;-83
2021/05/22 07:20:49;;;;;;;2.65;0.70;;;;;;;11.36;100.00;96828.69;5047374;28;20131;-83
2021/05/22 07:23:16;;;;;;;4.30;0.68;;;;;;;11.42;100.00;96825.41;5040228;28;20114;-84
2021/05/22 07:25:43;;;;;;;4.45;0.90;;;;;;;11.65;100.00;96826.53;5044455;28;20071;-84
2021/05/22 07:28:22;;;;;;;3.33;0.68;;;;;;;11.64;100.00;96835.00;5059262;28;20041;-85
2021/05/22 07:30:52;;;;;;;4.18;1.00;;;;;;;11.48;100.00;96820.56;5048204;28;20045;-86
2021/05/22 07:33:33;;;;;;;2.33;0.70;;;;;;;11.44;100.00;96815.03;5062246;28;20135;-84
2021/05/22 07:36:02;;;;;;;4.33;0.83;;;;;;;11.52;100.00;96830.38;5049926;28;20052;-84
2021/05/22 07:38:33;;;;;;;4.50;0.80;;;;;;;11.70;100.00;96833.66;5082421;28;20325;-83
2021/05/22 07:41:21;;;;;;;3.85;0.52;;;;;;;12.33;100.00;96830.13;5061645;28;20063;-83
2021/05/22 07:44:15;;;;;;;2.05;0.60;;;;;;;12.58;100.00;96830.78;5059428;28;20056;-82
2021/05/22 07:47:00;;;;;;;2.65;0.73;;;;;;;12.52;100.00;96815.09;5053896;28;20446;-83
2021/05/22 07:49:37;;;;;;;9.68;1.30;;;;;;;12.49;100.00;96824.72;5062288;28;20074;-84
2021/05/22 07:52:07;;;;;;;3.13;0.80;;;;;;;12.27;100.00;96812.50;5065279;28;20055;-83
2021/05/22 07:54:47;;;;;;;4.80;0.60;;;;;;;12.15;100.00;96830.75;5050574;28;20048;-83
2021/05/22 07:57:15;;;;;;;3.80;0.60;;;;;;;11.85;100.00;96822.91;5054738;28;20056;-82
2021/05/22 07:59:46;;;;;;;6.20;1.20;;;;;;;11.34;100.00;96826.31;5055341;28;20048;-84
2021/05/22 08:02:13;;;;;;;3.45;0.70;;;;;;;11.74;100.00;96838.06;5071859;28;20044;-81
2021/05/22 08:04:45;;;;;;;6.00;0.90;;;;;;;11.69;100.00;96843.72;5073523;28;20048;-83
2021/05/22 08:07:16;;;;;;;4.57;0.80;;;;;;;11.95;100.00;96850.69;5079789;28;20504;-83
2021/05/22 08:09:43;;;;;;;7.45;0.93;;;;;;;11.85;100.00;96832.94;5065852;28;20111;-82
2021/05/22 08:12:12;;;;;;;8.50;0.90;;;;;;;11.49;100.00;96831.06;5064160;28;20040;-83
2021/05/22 08:14:40;;;;;;;8.70;1.05;;;;;;;11.60;100.00;96831.38;5067746;28;20036;-83
2021/05/22 08:17:19;;;;;;;3.53;0.80;;;;;;;11.86;100.00;96821.78;5079967;28;20044;-81
2021/05/22 08:19:50;;;;;;;8.48;0.98;;;;;;;11.79;100.00;96835.09;5078523;28;20048;-82
2021/05/22 08:22:23;;;;;;;7.47;0.90;;;;;;;11.81;100.00;96832.06;5076074;28;20094;-82
2021/05/22 08:24:52;;;;;;;6.40;0.70;;;;;;;11.83;100.00;96840.66;5086916;28;20044;-80
2021/05/22 08:27:21;;;;;;;8.27;0.98;;;;;;;12.29;100.00;96831.91;5052757;28;20055;-82
2021/05/22 08:29:56;;;;;;;5.15;1.00;;;;;;;12.47;100.00;96822.34;5070974;28;20044;-82
2021/05/22 08:32:29;;;;;;;4.32;0.88;;;;;;;12.46;100.00;96842.47;5035800;28;20048;-81
2021/05/22 08:34:57;;;;;;;6.25;1.35;;;;;;;12.57;100.00;96829.19;5061156;28;20130;-80
2021/05/22 08:37:26;;;;;;;10.93;0.90;;;;;;;12.33;100.00;96832.84;5074637;28;20044;-81
2021/05/22 08:40:04;;;;;;;6.22;0.77;;;;;;;12.69;100.00;96834.59;5059871;28;20046;-79
2021/05/22 08:42:32;;;;;;;6.28;0.77;;;;;;;12.74;100.00;96812.59;5068274;28;20237;-80
2021/05/22 08:45:21;;;;;;;2.92;0.80;;;;;;;12.91;100.00;96831.28;5084770;28;20449;-80
2021/05/22 08:47:48;;;;;;;3.40;0.82;;;;;;;12.90;100.00;96829.72;5059576;28;20041;-80
2021/05/22 08:50:15;;;;;;;8.45;1.17;;;;;;;12.97;100.00;96813.59;5052360;28;20147;-80
2021/05/22 08:52:43;;;;;;;7.70;1.10;;;;;;;13.38;100.00;96838.66;5080239;28;20089;-74
2021/05/22 08:55:11;;;;;;;5.38;1.05;;;;;;;13.50;100.00;96844.00;5074910;28;20056;-71
2021/05/22 08:57:40;;;;;;;2.55;0.70;;;;;;;13.36;100.00;96844.47;5075683;28;20056;-81
2021/05/22 09:00:27;;;;;;;2.70;0.70;;;;;;;12.84;100.00;96833.81;5055233;28;20041;-80
2021/05/22 09:02:54;;;;;;;5.70;0.95;;;;;;;12.79;100.00;96833.28;5047884;28;20052;-82
2021/05/22 09:05:32;;;;;;;7.57;1.00;;;;;;;12.82;100.00;96848.88;5071752;28;20141;-82
2021/05/22 09:08:05;;;;;;;5.82;0.93;;;;;;;12.60;100.00;96820.34;5044010;28;20135;-81
2021/05/22 09:11:00;;;;;;;8.82;0.95;;;;;;;13.26;100.00;96836.06;5067565;28;20048;-82
2021/05/22 09:13:33;;;;;;;4.70;0.85;;;;;;;13.73;100.00;96818.53;5071446;28;20040;-83
2021/05/22 09:16:15;;;;;;;4.85;0.82;;;;;;;13.60;97.05;96822.50;5047832;28;20110;-82
2021/05/22 09:18:44;;;;;;;5.93;1.05;;;;;;;14.01;100.00;96828.47;5045936;28;20045;-82
2021/05/22 09:21:14;;;;;;;2.70;0.70;;;;;;;14.45;100.00;96826.28;5037158;28;20334;-82
2021/05/22 09:23:46;;;;;;;5.05;0.75;;;;;;;14.31;95.90;96840.41;5040109;28;20321;-82
2021/05/22 09:26:15;;;;;;;3.75;0.80;;;;;;;14.60;100.00;96849.94;5051713;28;20136;-80
2021/05/22 09:28:48;;;;;;;5.60;1.20;;;;;;;14.73;74.60;96848.63;5058684;28;20538;-82
2021/05/22 09:31:21;;;;;;;6.45;0.95;;;;;;;14.67;76.78;96850.84;5075557;28;20093;-83
2021/05/22 09:33:50;;;;;;;7.90;0.73;;;;;;;14.84;84.78;96857.81;5053386;28;20136;-81
2021/05/22 09:36:17;;;;;;;3.88;0.95;;;;;;;15.37;82.51;96845.09;5071140;28;20045;-80
2021/05/22 09:38:56;;;;;;;7.57;0.90;;;;;;;14.92;65.30;96832.22;5061155;28;20045;-83
2021/05/22 09:41:32;;;;;;;3.13;0.68;;;;;;;15.72;63.50;96840.22;5059666;28;20041;-83
2021/05/22 09:44:08;;;;;;;;;;;;;;;16.25;62.35;96848.38;5044047;23;20060;-80
2021/05/22 09:46:55;;;;;;;5.37;0.80;;;;;;;16.53;58.98;96855.00;5014669;28;20028;-80
2021/05/22 09:49:25;;;;;;;7.32;0.82;;;;;;;17.16;53.73;96835.00;4980864;28;20145;-80
2021/05/22 09:52:08;;;;;;;4.32;0.80;;;;;;;16.95;55.10;96837.50;4999252;28;20049;-79
2021/05/22 09:54:52;;;;;;;6.18;0.95;;;;;;;16.32;55.09;96848.44;4998215;28;20053;-79
2021/05/22 09:57:31;;;;;;;5.60;0.95;;;;;;;16.45;52.92;96864.25;4999616;28;20099;-78
2021/05/22 10:00:07;;;;;;;3.22;0.80;;;;;;;15.84;63.04;96841.97;4979223;28;20042;-82
2021/05/22 10:02:49;;;;;;;6.38;1.02;;;;;;;15.31;64.16;96847.34;4977969;28;20406;-80
2021/05/22 10:05:23;;;;;;;5.05;0.93;;;;;;;14.80;68.05;96837.84;4975618;28;20091;-78
2021/05/22 10:07:52;;;;;;;9.10;0.95;;;;;;;15.81;63.37;96837.22;4980258;28;20069;-79
2021/05/22 10:10:21;;;;;;;2.92;0.80;;;;;;;16.79;54.73;96837.75;4978270;28;20054;-80
2021/05/22 10:12:48;;;;;;;2.05;0.77;;;;;;;17.14;54.84;96845.50;4978705;28;20046;-80
2021/05/22 10:15:17;;;;;;;8.18;0.90;;;;;;;17.36;51.95;96845.34;4978308;28;20084;-81
2021/05/22 10:17:44;;;;;;;2.63;0.70;;;;;;;17.86;50.81;96840.28;4981183;28;20064;-81
2021/05/22 10:20:14;;;;;;;4.00;0.70;;;;;;;18.31;48.58;96836.22;4982054;28;20157;-80
2021/05/22 10:22:56;;;;;;;4.10;1.02;;;;;;;18.63;51.85;96843.41;5019416;28;20054;-79
2021/05/22 10:25:27;;;;;;;4.00;0.77;;;;;;;17.28;51.69;96831.97;5008073;28;20529;-80
2021/05/22 10:27:58;;;;;;;3.53;0.80;;;;;;;16.76;52.59;96838.47;5003509;28;20064;-80
2021/05/22 10:30:29;;;;;;;5.25;1.02;;;;;;;15.71;52.46;96835.13;5006082;28;20113;-80
2021/05/22 10:33:02;;;;;;;1.92;0.80;;;;;;;16.16;52.37;96835.78;5000461;28;20041;-79
2021/05/22 10:35:57;;;;;;;2.42;0.70;;;;;;;17.82;52.54;96831.25;4991325;28;20050;-81
2021/05/22 10:38:33;;;;;;;6.10;0.98;;;;;;;17.50;46.29;96824.72;4993371;28;20118;-81
2021/05/22 10:41:07;;;;;;;2.20;0.73;;;;;;;16.81;54.28;96829.94;4981594;28;20077;-80
2021/05/22 10:43:44;;;;;;;2.58;0.70;;;;;;;16.08;50.60;96847.75;4964580;28;20075;-78
2021/05/22 10:46:16;;;;;;;1.88;0.60;;;;;;;17.52;48.75;96827.88;5014867;28;20534;-80
2021/05/22 10:48:44;;;;;;;2.97;0.80;;;;;;;17.59;47.56;96845.16;5014634;28;20053;-81
2021/05/22 10:51:40;;;;;;;7.03;0.60;;;;;;;15.82;50.63;96842.31;5000280;28;20054;-82
2021/05/22 10:54:16;;;;;;;7.43;1.20;;;;;;;16.86;51.55;96842.47;5019448;28;20130;-81
2021/05/22 10:57:07;;;;;;;2.75;0.90;;;;;;;15.62;56.78;96824.47;5001949;28;20596;-81
2021/05/22 10:59:36;;;;;;;5.10;0.70;;;;;;;14.80;57.99;96835.13;4998450;28;20358;-79
2021/05/22 11:02:33;;;;;;;5.60;0.70;;;;;;;14.59;61.83;96837.44;5002075;28;20494;-81
2021/05/22 11:05:28;;;;;;;3.60;0.63;;;;;;;14.25;59.71;96837.16;4998740;28;20527;-81
2021/05/22 11:08:07;;;;;;;2.38;0.63;;;;;;;14.26;59.84;96844.19;4970070;28;20052;-78
2021/05/22 11:10:41;;;;;;;6.63;0.80;;;;;;;14.21;57.91;96847.19;4962858;28;20069;-78
2021/05/22 11:13:31;;;;;;;3.88;0.70;;;;;;;14.63;59.18;96855.47;4957766;28;20062;-77
2021/05/22 11:16:01;;;;;;;6.30;0.70;;;;;;;14.27;58.71;96842.25;4977729;28;20142;-81
2021/05/22 11:18:34;;;;;;;4.18;0.85;;;;;;;14.53;63.80;96849.81;5027450;28;20057;-81
2021/05/22 11:21:18;;;;;;;4.82;0.80;;;;;;;14.62;65.04;96847.63;5055103;28;20064;-81
2021/05/22 11:23:58;;;;;;;5.95;0.90;;;;;;;14.38;66.81;96843.25;4974143;28;20099;-81
2021/05/22 11:26:48;;;;;;;4.47;0.90;;;;;;;14.39;66.08;96842.13;5007288;28;20056;-79
2021/05/22 11:29:15;;;;;;;5.88;1.10;;;;;;;14.26;66.81;96865.94;5005630;28;20152;-83
2021/05/22 11:31:42;;;;;;;7.10;1.10;;;;;;;15.84;63.80;96856.41;4975119;28;20049;-80
2021/05/22 11:34:21;;;;;;;6.05;0.80;;;;;;;16.97;57.91;96838.72;4978272;28;20077;-80
2021/05/22 11:37:07;;;;;;;8.55;0.77;;;;;;;16.44;53.86;96842.78;4988432;28;20075;-81
2021/05/22 11:39:44;;;;;;;5.33;0.77;;;;;;;15.71;56.23;96848.78;4994436;28;20045;-81
2021/05/22 11:42:34;;;;;;;3.92;0.75;;;;;;;16.07;56.47;96824.34;4995187;28;20144;-81
2021/05/22 11:45:04;;;;;;;4.43;1.10;;;;;;;15.91;56.21;96837.38;4993402;28;20507;-80
2021/05/22 11:47:35;;;;;;;6.88;0.93;;;;;;;15.73;60.47;96851.91;4994324;28;20055;-81
2021/05/22 11:50:22;;;;;;;3.90;0.63;;;;;;;14.93;61.42;96853.69;4994046;28;20061;-80
2021/05/22 11:52:53;;;;;;;7.63;1.42;;;;;;;15.98;54.89;96834.75;4994913;28;20113;-80
2021/05/22 11:55:21;;;;;;;3.70;0.90;;;;;;;16.25;61.46;96846.44;5011176;28;20050;-81
2021/05/22 11:58:11;;;;;;;4.68;1.00;;;;;;;17.59;51.06;96836.94;5028197;28;20053;-81
2021/05/22 12:00:39;;;;;;;8.75;1.00;;;;;;;18.95;50.75;96835.28;4994305;28;20451;-80
2021/05/22 12:03:06;;;;;;;3.97;0.80;;;;;;;19.55;47.52;96838.16;4994269;28;20084;-82
2021/05/22 12:05:40;;;;;;;4.70;0.70;;;;;;;18.96;48.10;96847.84;4994463;28;20102;-81
2021/05/22 12:08:17;;;;;;;3.53;1.00;;;;;;;18.50;47.97;96868.84;4974461;28;20050;-81
2021/05/22 12:10:46;;;;;;;5.57;0.65;;;;;;;18.20;47.53;96836.16;4974942;28;20065;-81
2021/05/22 12:13:13;;;;;;;3.28;0.60;;;;;;;17.74;47.12;96843.31;4991164;28;20448;-81
2021/05/22 12:15:43;;;;;;;5.88;0.80;;;;;;;15.97;50.34;96833.19;4988463;28;20053;-78
2021/05/22 12:18:16;;;;;;;2.10;0.60;;;;;;;15.67;55.70;96862.34;5010823;28;20081;-81
2021/05/22 12:20:51;;;;;;;7.68;0.85;;;;;;;15.14;59.24;96856.00;4994273;28;20429;-81
2021/05/22 12:23:22;;;;;;;4.38;0.95;;;;;;;14.71;58.29;96865.31;4986734;28;20276;-78
2021/05/22 12:25:50;;;;;;;3.70;0.80;;;;;;;14.93;60.95;96866.53;4987014;28;20511;-80
2021/05/22 12:28:18;;;;;;;4.25;0.60;;;;;;;17.67;54.70;96854.22;4990718;28;20072;-82
2021/05/22 12:30:46;;;;;;;1.95;0.68;;;;;;;18.49;48.83;96856.28;4973863;28;20098;-80